createdAt,value
2019-04-26T00:00:05.678Z,12.00
2019-04-26T00:02:35.296Z,11.90
2019-04-26T00:05:03.064Z,11.80
2019-04-26T00:07:30.784Z,11.80
2019-04-26T00:10:00.111Z,11.60
2019-04-26T00:12:29.452Z,11.50
2019-04-26T00:14:59.008Z,11.60
2019-04-26T00:17:31.270Z,11.50
2019-04-26T00:19:59.216Z,11.60
2019-04-26T00:22:26.982Z,11.60
2019-04-26T00:24:54.749Z,11.40
2019-04-26T00:27:22.515Z,11.40
2019-04-26T00:29:50.266Z,11.40
2019-04-26T00:32:17.971Z,11.30
2019-04-26T00:34:45.642Z,11.30
2019-04-26T00:37:14.126Z,11.00
2019-04-26T00:39:41.890Z,10.80
2019-04-26T00:42:09.658Z,10.80
2019-04-26T00:44:37.698Z,10.90
2019-04-26T00:47:05.755Z,10.70
2019-04-26T00:52:02.821Z,10.20
2019-04-26T00:54:30.853Z,9.30
2019-04-26T00:56:58.485Z,9.20
2019-04-26T00:59:26.463Z,9.10
2019-04-26T01:01:58.252Z,9.20
2019-04-26T01:04:25.927Z,9.30
2019-04-26T01:06:55.502Z,9.30
2019-04-26T01:09:23.841Z,9.20
2019-04-26T01:11:51.559Z,9.50
2019-04-26T01:14:19.954Z,9.70
2019-04-26T01:16:47.703Z,9.80
2019-04-26T01:19:17.101Z,9.90
2019-04-26T01:21:46.687Z,10.00
2019-04-26T01:24:14.411Z,10.00
2019-04-26T01:26:42.430Z,9.90
2019-04-26T01:29:11.511Z,9.80
2019-04-26T01:31:43.631Z,9.40
2019-04-26T01:36:57.673Z,9.20
2019-04-26T01:39:25.820Z,8.80
2019-04-26T01:42:07.427Z,8.80
2019-04-26T01:44:41.064Z,8.90
2019-04-26T01:47:08.872Z,8.90
2019-04-26T01:49:36.522Z,9.10
2019-04-26T01:52:05.709Z,9.00
2019-04-26T01:54:34.900Z,9.20
2019-04-26T01:57:03.804Z,9.20
2019-04-26T01:59:31.625Z,9.20
2019-04-26T02:02:00.976Z,9.20
2019-04-26T02:04:30.257Z,9.20
2019-04-26T02:06:57.896Z,9.00
2019-04-26T02:09:26.368Z,8.70
2019-04-26T02:11:54.096Z,8.40
2019-04-26T02:14:22.657Z,8.40
2019-04-26T02:16:51.506Z,8.30
2019-04-26T02:19:19.366Z,8.40
2019-04-26T02:21:51.583Z,8.20
2019-04-26T02:24:21.059Z,8.20
2019-04-26T02:26:49.089Z,8.10
2019-04-26T02:29:18.376Z,8.20
2019-04-26T02:31:47.677Z,7.90
2019-04-26T02:34:15.767Z,7.90
2019-04-26T02:36:57.366Z,7.90
2019-04-26T02:39:18.288Z,8.10
2019-04-26T02:41:46.606Z,7.80
2019-04-26T02:44:14.861Z,8.00
2019-04-26T02:46:56.457Z,8.00
2019-04-26T02:49:27.495Z,7.40
2019-04-26T02:52:06.940Z,7.50
2019-04-26T02:54:44.945Z,7.80
2019-04-26T02:57:14.234Z,8.00
2019-04-26T02:59:43.547Z,7.90
2019-04-26T03:02:12.857Z,8.00
2019-04-26T03:04:41.474Z,8.10
2019-04-26T03:07:10.810Z,8.10
2019-04-26T03:09:40.093Z,8.20
2019-04-26T03:12:09.330Z,8.20
2019-04-26T03:14:43.165Z,8.20
2019-04-26T03:17:13.090Z,8.00
2019-04-26T03:19:58.821Z,7.90
2019-04-26T03:22:44.682Z,7.80
2019-04-26T03:25:16.880Z,7.80
2019-04-26T03:27:48.930Z,7.80
2019-04-26T03:30:21.467Z,7.80
2019-04-26T03:32:58.051Z,7.70
2019-04-26T03:36:01.985Z,7.70
2019-04-26T03:38:37.629Z,7.80
2019-04-26T03:41:20.103Z,7.80
2019-04-26T03:43:55.140Z,7.70
2019-04-26T03:46:30.163Z,7.80
2019-04-26T03:49:16.824Z,7.70
2019-04-26T03:52:01.073Z,7.80
2019-04-26T03:54:30.251Z,7.80
2019-04-26T03:57:03.939Z,7.80
2019-04-26T03:59:38.316Z,8.00
2019-04-26T04:02:09.325Z,8.10
2019-04-26T04:04:46.748Z,8.10
2019-04-26T04:07:16.062Z,8.00
2019-04-26T04:09:46.712Z,7.90
2019-04-26T04:12:25.163Z,8.00
2019-04-26T04:14:54.526Z,7.90
2019-04-26T04:17:28.445Z,8.00
2019-04-26T04:20:08.008Z,7.90
2019-04-26T04:22:39.057Z,7.90
2019-04-26T04:25:14.241Z,8.00
2019-04-26T04:27:45.141Z,8.00
2019-04-26T04:30:14.415Z,8.00
2019-04-26T04:32:47.711Z,8.00
2019-04-26T04:35:15.845Z,8.00
2019-04-26T04:38:08.775Z,8.10
2019-04-26T04:40:30.821Z,7.90
2019-04-26T04:43:04.454Z,8.00
2019-04-26T04:45:42.527Z,8.00
2019-04-26T04:48:16.655Z,8.00
2019-04-26T04:50:48.848Z,8.10
2019-04-26T04:53:24.525Z,8.20
2019-04-26T04:55:53.703Z,8.20
2019-04-26T04:58:29.732Z,8.30
2019-04-26T05:01:06.495Z,8.20
2019-04-26T05:03:51.046Z,8.30
2019-04-26T05:06:42.825Z,8.40
2019-04-26T05:09:12.785Z,8.60
2019-04-26T05:11:51.855Z,8.50
2019-04-26T05:14:36.358Z,8.60
2019-04-26T05:17:08.340Z,8.70
2019-04-26T05:19:41.395Z,8.70
2019-04-26T05:22:27.136Z,9.00
2019-04-26T05:25:15.807Z,8.20
2019-04-26T05:27:52.987Z,9.10
2019-04-26T05:30:29.735Z,9.10
2019-04-26T05:33:01.592Z,9.10
2019-04-26T05:35:41.150Z,9.10
2019-04-26T05:38:18.607Z,9.30
2019-04-26T05:40:51.439Z,9.50
2019-04-26T05:43:38.682Z,9.40
2019-04-26T05:46:15.239Z,9.30
2019-04-26T05:49:03.685Z,9.40
2019-04-26T05:51:50.479Z,9.50
2019-04-26T05:54:39.763Z,9.50
2019-04-26T05:57:34.987Z,9.60
2019-04-26T06:00:20.771Z,9.70
2019-04-26T06:02:57.256Z,9.70
2019-04-26T06:05:33.863Z,9.90
2019-04-26T06:08:17.301Z,10.00
2019-04-26T06:10:47.181Z,10.00
2019-04-26T06:13:24.070Z,10.10
2019-04-26T06:16:21.764Z,10.30
2019-04-26T06:19:19.741Z,10.50
2019-04-26T06:21:52.409Z,10.80
2019-04-26T06:24:41.161Z,11.00
2019-04-26T06:27:17.975Z,11.00
2019-04-26T06:29:55.164Z,11.00
2019-04-26T06:32:30.204Z,10.90
2019-04-26T06:35:14.455Z,10.90
2019-04-26T06:38:03.920Z,11.20
2019-04-26T06:40:45.110Z,11.20
2019-04-26T06:43:15.943Z,11.10
2019-04-26T06:46:13.777Z,11.10
2019-04-26T06:48:44.591Z,11.20
2019-04-26T06:51:24.154Z,11.20
2019-04-26T06:53:57.216Z,11.20
2019-04-26T06:56:31.050Z,11.20
2019-04-26T06:59:01.320Z,11.20
2019-04-26T07:01:33.340Z,11.30
2019-04-26T07:04:08.385Z,11.40
2019-04-26T07:06:54.087Z,11.40
2019-04-26T07:14:51.066Z,11.70
2019-04-26T07:17:20.302Z,11.80
2019-04-26T07:20:01.451Z,12.00
2019-04-26T07:22:38.960Z,11.80
2019-04-26T07:25:09.809Z,12.20
2019-04-26T07:30:12.766Z,12.40
2019-04-26T07:32:58.425Z,12.40
2019-04-26T07:35:45.444Z,12.40
2019-04-26T07:38:28.077Z,12.40
2019-04-26T07:41:07.784Z,12.50
2019-04-26T07:43:50.789Z,12.30
2019-04-26T07:46:21.119Z,12.20
2019-04-26T07:49:08.695Z,12.30
2019-04-26T07:51:49.759Z,12.40
2019-04-26T07:54:37.111Z,12.60
2019-04-26T07:57:15.367Z,12.80
2019-04-26T07:59:53.700Z,12.60
2019-04-26T08:02:24.528Z,12.90
2019-04-26T08:04:56.711Z,13.00
2019-04-26T08:07:29.148Z,12.90
2019-04-26T08:09:59.719Z,12.90
2019-04-26T08:12:29.234Z,12.60
2019-04-26T08:15:00.066Z,12.90
2019-04-26T08:17:30.885Z,12.90
2019-04-26T08:20:00.087Z,12.90
2019-04-26T08:22:32.653Z,13.00
2019-04-26T08:24:59.428Z,12.90
2019-04-26T08:27:28.600Z,13.00
2019-04-26T08:29:57.807Z,13.00
2019-04-26T08:32:28.129Z,12.90
2019-04-26T08:35:02.314Z,13.10
2019-04-26T08:37:50.031Z,13.00
2019-04-26T08:40:26.557Z,13.10
2019-04-26T08:42:53.399Z,13.10
2019-04-26T08:45:22.464Z,13.20
2019-04-26T08:47:53.623Z,12.90
2019-04-26T08:50:23.723Z,12.60
2019-04-26T08:52:51.866Z,12.70
2019-04-26T08:55:20.001Z,12.60
2019-04-26T08:57:49.899Z,12.70
2019-04-26T09:00:24.016Z,12.80
2019-04-26T09:03:11.397Z,12.90
2019-04-26T09:05:51.387Z,12.80
2019-04-26T09:08:22.862Z,12.60
2019-04-26T09:10:52.051Z,12.50
2019-04-26T09:13:21.321Z,12.20
2019-04-26T09:15:50.526Z,12.40
2019-04-26T09:18:19.108Z,12.20
2019-04-26T09:20:46.772Z,12.00
2019-04-26T09:23:16.067Z,12.00
2019-04-26T09:25:45.358Z,12.30
2019-04-26T09:28:17.635Z,12.50
2019-04-26T09:30:52.558Z,12.50
2019-04-26T09:33:21.941Z,12.20
2019-04-26T09:35:49.606Z,12.10
2019-04-26T09:38:18.200Z,11.90
2019-04-26T09:40:45.887Z,11.90
2019-04-26T09:43:17.957Z,11.90
2019-04-26T09:46:05.471Z,11.80
2019-04-26T09:48:36.759Z,11.90
2019-04-26T09:51:05.468Z,12.00
2019-04-26T09:53:33.145Z,12.10
2019-04-26T09:56:00.942Z,11.90
2019-04-26T09:58:31.993Z,12.00
2019-04-26T10:01:00.537Z,12.10
2019-04-26T10:03:28.268Z,12.30
2019-04-26T10:05:57.052Z,12.20
2019-04-26T10:08:24.887Z,12.20
2019-04-26T10:10:52.563Z,11.90
2019-04-26T10:13:24.902Z,11.90
2019-04-26T10:15:58.301Z,12.00
2019-04-26T10:18:26.388Z,12.00
2019-04-26T10:20:54.106Z,12.30
2019-04-26T10:23:21.756Z,12.10
2019-04-26T10:25:51.844Z,12.30
2019-04-26T10:28:18.860Z,12.20
2019-04-26T10:30:46.506Z,12.30
2019-04-26T10:33:14.251Z,12.20
2019-04-26T10:35:41.907Z,12.10
2019-04-26T10:38:09.602Z,12.00
2019-04-26T10:40:37.358Z,11.80
2019-04-26T10:43:05.696Z,11.90
2019-04-26T10:45:33.399Z,12.00
2019-04-26T10:48:01.100Z,12.00
2019-04-26T10:50:32.844Z,11.90
2019-04-26T10:53:05.777Z,12.00
2019-04-26T10:55:46.503Z,11.70
2019-04-26T10:58:21.200Z,11.40
2019-04-26T11:00:54.103Z,11.40
2019-04-26T11:03:21.844Z,11.20
2019-04-26T11:05:53.628Z,11.20
2019-04-26T11:08:18.960Z,11.30
2019-04-26T11:10:48.904Z,11.20
2019-04-26T11:13:16.117Z,11.00
2019-04-26T11:15:44.128Z,10.90
2019-04-26T11:18:13.835Z,10.90
2019-04-26T11:20:45.385Z,11.00
2019-04-26T11:23:11.738Z,11.20
2019-04-26T11:25:40.239Z,11.30
2019-04-26T11:28:07.883Z,11.40
2019-04-26T11:30:35.703Z,11.30
2019-04-26T11:33:03.440Z,10.90
2019-04-26T11:35:33.214Z,11.00
2019-04-26T11:38:00.596Z,11.00
2019-04-26T11:40:28.292Z,11.30
2019-04-26T11:42:56.038Z,11.30
2019-04-26T11:45:23.713Z,11.30
2019-04-26T11:47:56.280Z,11.20
2019-04-26T11:50:21.832Z,11.20
2019-04-26T11:52:49.500Z,11.20
2019-04-26T11:55:17.174Z,11.00
2019-04-26T11:57:47.542Z,11.00
2019-04-26T12:00:16.128Z,11.10
2019-04-26T12:02:46.294Z,11.00
2019-04-26T12:05:15.072Z,10.90
2019-04-26T12:07:56.133Z,10.90
2019-04-26T12:10:23.899Z,11.00
2019-04-26T12:12:51.856Z,10.90
2019-04-26T12:15:29.662Z,10.80
2019-04-26T12:17:58.491Z,11.00
2019-04-26T12:20:22.344Z,10.90
2019-04-26T12:22:49.027Z,10.70
2019-04-26T12:25:16.745Z,10.80
2019-04-26T12:27:44.541Z,10.70
2019-04-26T12:30:12.816Z,10.80
2019-04-26T12:32:40.457Z,11.00
2019-04-26T12:35:08.201Z,11.00
2019-04-26T12:37:35.852Z,10.80
2019-04-26T12:40:07.174Z,10.60
2019-04-26T12:42:35.116Z,10.60
2019-04-26T12:45:04.427Z,10.70
2019-04-26T12:47:34.524Z,10.70
2019-04-26T12:50:03.804Z,10.60
2019-04-26T12:52:31.477Z,10.40
2019-04-26T12:54:59.245Z,10.50
2019-04-26T12:57:26.933Z,10.50
2019-04-26T12:59:57.652Z,10.40
2019-04-26T13:02:24.080Z,10.30
2019-04-26T13:04:51.816Z,10.20
2019-04-26T13:07:23.709Z,10.20
2019-04-26T13:10:08.295Z,10.30
2019-04-26T13:12:37.614Z,10.10
2019-04-26T13:15:27.807Z,10.00
2019-04-26T13:17:57.581Z,9.90
2019-04-26T13:20:28.717Z,9.90
2019-04-26T13:22:55.918Z,10.00
2019-04-26T13:25:26.575Z,9.90
2019-04-26T13:27:53.038Z,9.80
2019-04-26T13:30:32.672Z,9.80
2019-04-26T13:32:55.950Z,9.80
2019-04-26T13:35:46.550Z,9.70
2019-04-26T13:38:14.990Z,9.70
2019-04-26T13:41:04.796Z,9.70
2019-04-26T13:43:32.856Z,9.60
2019-04-26T13:46:05.338Z,9.50
2019-04-26T13:51:27.756Z,9.50
2019-04-26T13:53:55.484Z,9.50
2019-04-26T13:56:23.241Z,9.50
2019-04-26T13:59:10.232Z,9.50
2019-04-26T14:01:37.921Z,9.40
2019-04-26T14:04:07.280Z,9.40
2019-04-26T14:06:55.134Z,9.40
2019-04-26T14:09:22.796Z,9.20
2019-04-26T14:11:50.460Z,9.30
2019-04-26T14:17:26.040Z,9.20
2019-04-26T14:19:55.225Z,9.20
2019-04-26T14:22:24.560Z,9.20
2019-04-26T14:24:57.015Z,9.10
2019-04-26T14:27:25.095Z,9.10
2019-04-26T14:32:23.225Z,8.90
2019-04-26T14:34:51.449Z,8.90
2019-04-26T14:37:19.155Z,8.90
2019-04-26T14:39:50.756Z,8.90
2019-04-26T14:42:16.396Z,8.80
2019-04-26T14:44:49.474Z,8.80
2019-04-26T14:47:17.672Z,8.80
2019-04-26T14:49:43.211Z,8.70
2019-04-26T14:52:10.985Z,8.90
2019-04-26T14:54:41.452Z,8.80
2019-04-26T14:57:17.002Z,8.80
2019-04-26T14:59:47.996Z,8.70
2019-04-26T15:02:17.342Z,8.80
2019-04-26T15:04:46.655Z,8.70
2019-04-26T15:07:14.388Z,8.70
2019-04-26T15:09:42.853Z,8.70
2019-04-26T15:12:12.492Z,8.80
2019-04-26T15:14:40.167Z,8.70
2019-04-26T15:17:07.999Z,8.70
2019-04-26T15:19:40.318Z,8.60
2019-04-26T15:22:10.299Z,8.60
2019-04-26T15:24:38.561Z,8.60
2019-04-26T15:27:05.028Z,8.60
2019-04-26T15:29:33.712Z,8.60
2019-04-26T15:32:03.230Z,8.70
2019-04-26T15:34:30.863Z,8.70
2019-04-26T15:36:59.077Z,8.80
2019-04-26T15:39:30.995Z,9.00
2019-04-26T15:42:16.550Z,9.10
2019-04-26T15:44:48.936Z,9.00
2019-04-26T15:47:24.278Z,9.00
2019-04-26T15:49:56.455Z,9.10
2019-04-26T15:52:24.293Z,9.10
2019-04-26T15:54:52.895Z,9.30
2019-04-26T15:57:24.488Z,9.20
2019-04-26T16:02:23.036Z,9.30
2019-04-26T16:04:51.328Z,9.30
2019-04-26T16:07:27.813Z,9.20
2019-04-26T16:09:55.891Z,9.20
2019-04-26T16:12:25.818Z,9.10
2019-04-26T16:14:53.031Z,9.20
2019-04-26T16:17:20.766Z,9.10
2019-04-26T16:19:48.484Z,9.20
2019-04-26T16:22:18.138Z,9.20
2019-04-26T16:24:47.570Z,9.10
2019-04-26T16:30:24.412Z,9.20
2019-04-26T16:33:07.887Z,9.20
2019-04-26T16:35:35.665Z,9.10
2019-04-26T16:38:22.878Z,9.00
2019-04-26T16:43:44.634Z,8.90
2019-04-26T16:46:19.604Z,8.90
2019-04-26T16:48:40.302Z,8.90
2019-04-26T16:51:27.429Z,8.90
2019-04-26T16:54:06.997Z,9.00
2019-04-26T16:56:45.388Z,9.00
2019-04-26T16:59:28.739Z,9.00
2019-04-26T17:01:46.735Z,9.10
2019-04-26T17:04:14.126Z,9.00
2019-04-26T17:06:45.194Z,9.00
2019-04-26T17:09:14.277Z,8.80
2019-04-26T17:11:41.389Z,8.80
2019-04-26T17:14:10.315Z,8.80
2019-04-26T17:16:38.874Z,8.80
2019-04-26T17:19:06.592Z,8.80
2019-04-26T17:21:35.898Z,8.90
2019-04-26T17:24:12.292Z,8.80
2019-04-26T17:26:50.369Z,8.90
2019-04-26T17:29:18.020Z,8.90
2019-04-26T17:31:45.705Z,8.80
2019-04-26T17:34:13.375Z,8.70
2019-04-26T17:36:41.060Z,8.70
2019-04-26T17:39:16.435Z,8.80
2019-04-26T17:41:45.438Z,8.80
2019-04-26T17:44:28.534Z,8.80
2019-04-26T17:46:59.486Z,8.70
2019-04-26T17:49:27.125Z,8.90
2019-04-26T17:51:58.010Z,8.90
2019-04-26T17:54:49.010Z,8.90
2019-04-26T17:57:14.892Z,8.80
2019-04-26T17:59:47.756Z,8.80
2019-04-26T18:02:25.501Z,9.00
2019-04-26T18:04:43.124Z,8.90
2019-04-26T18:07:36.425Z,8.80
2019-04-26T18:09:44.712Z,8.80
2019-04-26T18:12:09.704Z,8.80
2019-04-26T18:14:37.356Z,8.90
2019-04-26T18:17:15.471Z,8.80
2019-04-26T18:19:47.439Z,8.80
2019-04-26T18:22:28.369Z,8.80
2019-04-26T18:24:54.881Z,8.80
2019-04-26T18:27:24.010Z,8.80
2019-04-26T18:29:53.168Z,8.90
2019-04-26T18:32:21.375Z,8.80
2019-04-26T18:34:49.030Z,8.80
2019-04-26T18:37:16.755Z,8.70
2019-04-26T18:39:44.427Z,8.70
2019-04-26T18:42:13.616Z,8.70
2019-04-26T18:44:47.552Z,8.60
2019-04-26T18:47:14.723Z,8.60
2019-04-26T18:49:43.577Z,8.60
2019-04-26T18:52:11.258Z,8.70
2019-04-26T18:54:43.688Z,8.70
2019-04-26T18:57:15.682Z,8.60
2019-04-26T18:59:44.812Z,8.70
2019-04-26T19:02:11.427Z,8.70
2019-04-26T19:04:41.746Z,8.70
2019-04-26T19:07:12.091Z,8.70
2019-04-26T19:09:56.670Z,8.70
2019-04-26T19:12:08.205Z,8.70
2019-04-26T19:14:49.247Z,8.70
2019-04-26T19:17:17.332Z,8.80
2019-04-26T19:19:46.660Z,8.80
2019-04-26T19:22:17.000Z,8.80
2019-04-26T19:24:44.048Z,8.80
2019-04-26T19:27:12.475Z,8.80
2019-04-26T19:29:41.103Z,8.80
2019-04-26T19:32:09.640Z,8.80
2019-04-26T19:34:37.309Z,8.80
2019-04-26T19:37:05.025Z,8.70
2019-04-26T19:39:35.562Z,8.70
2019-04-26T19:42:02.559Z,8.70
2019-04-26T19:44:31.601Z,8.70
2019-04-26T19:47:04.888Z,8.70
2019-04-26T19:49:48.174Z,8.60
2019-04-26T19:52:17.486Z,8.70
2019-04-26T19:54:58.968Z,8.70
2019-04-26T19:57:28.304Z,8.60
2019-04-26T19:59:56.002Z,8.60
2019-04-26T20:02:26.286Z,8.60
2019-04-26T20:04:53.097Z,8.60
2019-04-26T20:07:24.274Z,8.60
2019-04-26T20:09:50.112Z,8.60
2019-04-26T20:12:17.757Z,8.60
2019-04-26T20:14:50.928Z,8.60
2019-04-26T20:17:19.753Z,8.60
2019-04-26T20:19:47.806Z,8.60
2019-04-26T20:22:13.631Z,8.60
2019-04-26T20:24:42.895Z,8.60
2019-04-26T20:27:15.573Z,8.60
2019-04-26T20:29:40.694Z,8.60
2019-04-26T20:32:16.574Z,8.60
2019-04-26T20:34:45.265Z,8.60
2019-04-26T20:37:16.236Z,8.60
2019-04-26T20:39:42.375Z,8.50
2019-04-26T20:42:11.953Z,8.60
2019-04-26T20:44:49.088Z,8.60
2019-04-26T20:47:14.288Z,8.60
2019-04-26T20:49:49.364Z,8.60
2019-04-26T20:52:07.612Z,8.70
2019-04-26T20:54:35.269Z,8.60
2019-04-26T20:57:02.988Z,8.50
2019-04-26T20:59:30.724Z,8.60
2019-04-26T21:02:06.979Z,8.50
2019-04-26T21:04:36.874Z,8.50
2019-04-26T21:06:57.213Z,8.50
2019-04-26T21:09:24.929Z,8.50
2019-04-26T21:11:52.588Z,8.50
2019-04-26T21:14:21.399Z,8.60
2019-04-26T21:16:50.391Z,8.60
2019-04-26T21:19:19.198Z,8.50
2019-04-26T21:21:48.591Z,8.60
2019-04-26T21:24:19.919Z,8.60
2019-04-26T21:27:04.658Z,8.60
2019-04-26T21:29:52.406Z,8.50
2019-04-26T21:32:37.671Z,8.50
2019-04-26T21:35:06.835Z,8.50
2019-04-26T21:37:38.595Z,8.40
2019-04-26T21:40:16.852Z,8.40
2019-04-26T21:42:45.089Z,8.50
2019-04-26T21:45:12.613Z,8.50
2019-04-26T21:47:40.260Z,8.50
2019-04-26T21:50:07.973Z,8.60
2019-04-26T21:52:35.615Z,8.50
2019-04-26T21:55:04.638Z,8.40
2019-04-26T21:57:34.858Z,8.50
2019-04-26T22:00:04.146Z,8.40
2019-04-26T22:02:35.607Z,8.40
2019-04-26T22:05:03.179Z,8.40
2019-04-26T22:07:30.715Z,8.40
2019-04-26T22:10:12.066Z,8.40
2019-04-26T22:12:39.717Z,8.40
2019-04-26T22:15:14.963Z,8.40
2019-04-26T22:18:00.355Z,8.40
2019-04-26T22:20:29.715Z,8.30
2019-04-26T22:23:05.102Z,8.30
2019-04-26T22:25:34.411Z,8.30
2019-04-26T22:28:03.372Z,8.30
2019-04-26T22:30:33.042Z,8.30
2019-04-26T22:33:00.632Z,8.30
2019-04-26T22:35:28.294Z,8.30
2019-04-26T22:37:55.935Z,8.30
2019-04-26T22:40:23.579Z,8.40
2019-04-26T22:42:54.397Z,8.40
2019-04-26T22:45:27.882Z,8.40
2019-04-26T22:48:03.537Z,8.40
2019-04-26T22:50:31.230Z,8.30
2019-04-26T22:52:58.874Z,8.30
2019-04-26T22:55:27.577Z,8.30
2019-04-26T22:57:55.353Z,8.20
2019-04-26T23:00:29.352Z,8.30
2019-04-26T23:02:58.020Z,8.30
2019-04-26T23:05:23.545Z,8.30
2019-04-26T23:07:54.762Z,8.30
2019-04-26T23:10:28.213Z,8.30
2019-04-26T23:12:54.057Z,8.30
2019-04-26T23:15:33.228Z,8.30
2019-04-26T23:18:18.635Z,8.30
2019-04-26T23:20:56.981Z,8.20
2019-04-26T23:23:24.636Z,8.20
2019-04-26T23:25:52.278Z,8.20
2019-04-26T23:28:19.932Z,8.20
2019-04-26T23:30:47.912Z,8.20
2019-04-26T23:33:15.559Z,8.20
2019-04-26T23:35:46.958Z,8.20
2019-04-26T23:38:13.474Z,8.30
2019-04-26T23:40:42.947Z,8.20
2019-04-26T23:43:10.715Z,8.20
2019-04-26T23:45:43.570Z,8.10
2019-04-26T23:48:11.786Z,8.20
2019-04-26T23:50:37.118Z,8.10
2019-04-26T23:53:04.740Z,8.10
2019-04-26T23:55:33.792Z,8.10
2019-04-26T23:58:04.887Z,8.00
